Portada
METAR-TAF:

METAR-TAF

Aeroports :

Paraburdoo, Austràlia

latitud: 23-10-17S, longitud: 117-44-44E, altitud: 429 m

Observació

L'informe es va fer fa 54 minuts, a les 10:00 UTC
Vent 7 kt del Sud
Temperatura 20°C
Humitat 30%
Pressió 1015 hPa
Visibilitat 10 km o més

METAR: YPBO 161000Z AUTO 19007KT 9999 // NCD 20/02 Q1015

Hora: 18:54 (10:54 UTC)


TAF: manca

Observacions i pronòstics meteorològics de més de 4000 aeroports (METAR i TAF).

Les estacions disponibles són els punts grocs i vermells al mapa.

Posi el ratolí al punt desitjat per veure el nom de l'estació.

Feu clic per veure les observacions i els pronòstics meteorològics.

Per canviar el mapa: feu clic els botons verds amb una creu de color negre per apropar; al botó verd amb un guió per allunyar la imatge; o en les fletxes verdes per a mapes adjacents.


METAR-TAF: